Aérodrome :
LOGIN :

S'inscrire | Disclaimer

   EN    FR    IT 

 










Légende :    VFR   VFR Marginal   IFR   IFR Intensif   IFR Très Intensif
Visi : 
Plafond : 
>= 8 km
>= 3000ft
5 à 8 km
1000 à 3000 ft
1500m à 5 km
500 à 1000 ft
800 à 1500m
200 à 500 ft
< 800m
< 200 ft
Symboles :   Orages  Brouillard  Fortes neiges  Fortes précipitations  Vent > 20 kt
SIGMETs :   Divers  Orages  Givrage  Turbulence  Onde Orograph.  Cendres Volcan.






- Altitude de l'aérodrome : 32 ft
- Code IATA : LKZ


EGUL - RAF Lakenheath

DERNIER METAR :
  • 271555Z AUTO 24010KT 9999 CLR 17/06 A2992 RMK AO2 SLP135 T01700059 FZRANO $

METARs EXPIRÉS :
  • 271519Z AUTO 26012KT 9999 FEW047 18/05 A2992 RMK AO2 WSHFT 15 SLP135 FZRANO $
  • 271455Z AUTO 23012KT 9999 FEW045 18/06 A2992 RMK AO2 SLP135 T01790064 58001 FZRANO $
  • 271427Z AUTO 24012KT 9999 FEW043 FEW200 17/07 A2992 RMK AO2 WSHFT 15 SLP135 FZRANO $
  • 271355Z AUTO 22007KT 9999 SCT042 SCT050 SCT160 16/07 A2992 RMK AO2 SLP135 T01640071 FZRANO $
  • 271331Z AUTO 25012KT 9999 FEW042 BKN150 17/07 A2993 RMK AO2 WSHFT 16 SLP139 FZRANO $
  • 271255Z AUTO 19013KT 9999 FEW080 FEW190 17/05 A2992 RMK AO2 SLP135 T01680048 FZRANO $
  • 271155Z AUTO 23016KT 9999 FEW047 SCT190 18/07 A2992 RMK AO2 SLP135 T01790067 10180 20129 55002 FZRANO $

TAF AMD TAF EGUL
Valide du 27 à 10h jusqu'au 28 à 11h UTC


271050Z 2710/2811 23012KT 9000 -SHRA BKN025 OVC050 QNH2989INS
BECMG 2717/2718 23006KT 9999 NSW OVC045 QNH2996INS
BECMG 2807/2808 18009KT 9000 -RA SCT010 OVC017 QNH2995INS
TEMPO 2808/2810 BKN010
BECMG 2809/2810 19010G20KT 9999 -RA SCT017 BKN024 OVC039 QNH2988INS TX17/2715Z TN09/2804Z LAST NO AMDS AFT 2710 NEXT 2716



MET'MAP, la Météo Aéronautique d'un coup d'oeil ! - Copyright ORBIFLY Décembre 2007 - Disclaimer

ORBIFLY MET'MAP TEAM :

Programmation & Développement : Alexandra Zaïnal
Sur une idée originale de : Baudouin d'Aumeries
Soutien technique & logistique : Manuel Goepfert
Assistance : Marc-Olivier Méhu




SOURCES & CREDITS :

   NOAA